createdAt,value
2023-03-27T00:00:38.492Z,747.1539
2023-03-27T00:01:40.105Z,746.6923
2023-03-27T00:02:41.958Z,748.0769
2023-03-27T00:03:43.525Z,749.6923
2023-03-27T00:04:45.062Z,751.0000
2023-03-27T00:05:46.733Z,752.6154
2023-03-27T00:06:48.357Z,748.2308
2023-03-27T00:07:50.016Z,744.3077
2023-03-27T00:08:51.657Z,745.3077
2023-03-27T00:09:53.327Z,744.4615
2023-03-27T00:10:55.178Z,742.6154
2023-03-27T00:11:56.617Z,742.6923
2023-03-27T00:12:58.255Z,744.3846
2023-03-27T00:13:59.926Z,738.4615
2023-03-27T00:15:01.537Z,742.3077
2023-03-27T00:16:03.254Z,747.0000
2023-03-27T00:17:04.883Z,748.3077
2023-03-27T00:18:06.552Z,748.0769
2023-03-27T00:19:08.150Z,749.3846
2023-03-27T00:20:09.833Z,747.1539
2023-03-27T00:21:11.513Z,745.0769
2023-03-27T00:22:13.129Z,749.9231
2023-03-27T00:23:14.767Z,755.4615
2023-03-27T00:24:16.435Z,752.0000
2023-03-27T00:25:18.063Z,754.6154
2023-03-27T00:26:19.758Z,754.3846
2023-03-27T00:27:21.371Z,747.0769
2023-03-27T00:28:23.030Z,744.0769
2023-03-27T00:29:24.672Z,744.9231
2023-03-27T00:30:26.325Z,744.6154
2023-03-27T00:31:28.079Z,738.4615
2023-03-27T00:32:29.653Z,738.0769
2023-03-27T00:33:31.300Z,742.3846
2023-03-27T00:34:32.924Z,745.6923
2023-03-27T00:35:34.672Z,748.3846
2023-03-27T00:36:36.248Z,748.0769
2023-03-27T00:37:37.897Z,747.2308
2023-03-27T00:38:39.740Z,746.8461
2023-03-27T00:39:41.222Z,746.0000
2023-03-27T00:40:42.855Z,746.7692
2023-03-27T00:41:44.531Z,752.0000
2023-03-27T00:42:46.152Z,750.5385
2023-03-27T00:43:47.816Z,748.3077
2023-03-27T00:44:49.442Z,744.6923
2023-03-27T00:45:51.126Z,744.8461
2023-03-27T00:46:52.803Z,745.5385
2023-03-27T00:47:54.428Z,745.0769
2023-03-27T00:48:56.047Z,748.6923
2023-03-27T00:49:57.728Z,746.2308
2023-03-27T00:50:59.356Z,743.3077
2023-03-27T00:52:01.058Z,745.6154
2023-03-27T00:53:02.657Z,746.3846
2023-03-27T00:54:04.329Z,742.8461
2023-03-27T00:55:05.985Z,744.6154
2023-03-27T00:56:07.650Z,743.5385
2023-03-27T00:57:09.333Z,744.1539
2023-03-27T00:58:10.946Z,743.3846
2023-03-27T00:59:12.606Z,743.7692
2023-03-27T01:00:14.282Z,744.9231
2023-03-27T01:01:15.904Z,742.3077
2023-03-27T01:02:17.596Z,741.2308
2023-03-27T01:03:19.275Z,742.8461
2023-03-27T01:04:20.849Z,742.6154
2023-03-27T01:05:22.487Z,740.3846
2023-03-27T01:06:24.149Z,740.2308
2023-03-27T01:07:25.788Z,741.8461
2023-03-27T01:08:27.451Z,746.6154
2023-03-27T01:09:29.084Z,744.7692
2023-03-27T01:10:30.753Z,745.7692
2023-03-27T01:11:32.386Z,746.1539
2023-03-27T01:12:34.069Z,745.0769
2023-03-27T01:13:35.693Z,744.9231
2023-03-27T01:14:37.362Z,741.6923
2023-03-27T01:15:39.013Z,739.0769
2023-03-27T01:16:40.663Z,739.0769
2023-03-27T01:17:42.358Z,738.6923
2023-03-27T01:18:43.946Z,738.6154
2023-03-27T01:19:45.594Z,743.0769
2023-03-27T01:20:47.345Z,744.0000
2023-03-27T01:21:48.904Z,740.5385
2023-03-27T01:22:50.599Z,740.0000
2023-03-27T01:23:59.354Z,743.6154
2023-03-27T01:24:53.889Z,743.3846
2023-03-27T01:25:55.500Z,742.0000
2023-03-27T01:26:57.168Z,741.5385
2023-03-27T01:27:58.832Z,739.1539
2023-03-27T01:29:00.477Z,741.1539
2023-03-27T01:30:02.109Z,743.9231
2023-03-27T01:31:03.798Z,742.7692
2023-03-27T01:32:05.414Z,744.6154
2023-03-27T01:33:07.174Z,744.0000
2023-03-27T01:34:08.718Z,740.4615
2023-03-27T01:35:10.398Z,735.4615
2023-03-27T01:36:12.042Z,734.6923
2023-03-27T01:37:13.706Z,737.3846
2023-03-27T01:38:15.355Z,737.4615
2023-03-27T01:39:17.013Z,737.5385
2023-03-27T01:40:18.639Z,738.6923
2023-03-27T01:41:20.316Z,741.7692
2023-03-27T01:42:21.948Z,741.2308
2023-03-27T01:43:23.647Z,739.0000
2023-03-27T01:44:25.247Z,736.6154
2023-03-27T01:45:26.919Z,732.9231
2023-03-27T01:46:28.587Z,736.3077
2023-03-27T01:47:30.237Z,735.8461
2023-03-27T01:48:31.929Z,733.3846
2023-03-27T01:49:33.531Z,733.2308
2023-03-27T01:50:35.152Z,736.2308
2023-03-27T01:51:36.839Z,733.3077
2023-03-27T01:52:38.488Z,734.6154
2023-03-27T01:53:40.294Z,734.2308
2023-03-27T01:54:41.782Z,735.2308
2023-03-27T01:55:43.441Z,733.1539
2023-03-27T01:56:45.091Z,733.4615
2023-03-27T01:57:48.961Z,734.1539
2023-03-27T01:58:48.405Z,733.8461
2023-03-27T01:59:50.061Z,732.3846
2023-03-27T02:01:04.110Z,733.2308
2023-03-27T02:01:53.357Z,734.2308
2023-03-27T02:02:55.009Z,735.3077
2023-03-27T02:03:56.701Z,735.8461
2023-03-27T02:04:58.322Z,732.3077
2023-03-27T02:05:59.962Z,724.3077
2023-03-27T02:07:01.597Z,728.6923
2023-03-27T02:08:03.282Z,735.1539
2023-03-27T02:09:04.911Z,731.3846
2023-03-27T02:10:06.581Z,731.3077
2023-03-27T02:11:08.284Z,735.1539
2023-03-27T02:12:09.946Z,732.3077
2023-03-27T02:13:11.584Z,734.5385
2023-03-27T02:14:13.278Z,734.1539
2023-03-27T02:15:23.659Z,734.0769
2023-03-27T02:16:16.641Z,735.6154
2023-03-27T02:17:18.201Z,734.6154
2023-03-27T02:18:19.881Z,731.8461
2023-03-27T02:19:21.537Z,732.0769
2023-03-27T02:20:23.186Z,731.8461
2023-03-27T02:21:24.846Z,729.6154
2023-03-27T02:22:38.137Z,727.9231
2023-03-27T02:23:28.132Z,729.9231
2023-03-27T02:24:29.867Z,729.7692
2023-03-27T02:25:31.457Z,731.7692
2023-03-27T02:26:33.125Z,733.5385
2023-03-27T02:27:34.743Z,732.5385
2023-03-27T02:28:36.415Z,730.5385
2023-03-27T02:29:38.080Z,730.0769
2023-03-27T02:30:39.735Z,732.1539
2023-03-27T02:31:41.430Z,731.3077
2023-03-27T02:32:43.163Z,722.6923
2023-03-27T02:33:44.681Z,722.3846
2023-03-27T02:34:46.338Z,723.8461
2023-03-27T02:35:48.022Z,726.0769
2023-03-27T02:36:49.646Z,724.8461
2023-03-27T02:37:51.314Z,725.7692
2023-03-27T02:38:52.950Z,730.8461
2023-03-27T02:39:54.638Z,724.5385
2023-03-27T02:40:56.396Z,726.6154
2023-03-27T02:41:57.911Z,729.2308
2023-03-27T02:42:59.577Z,723.1539
2023-03-27T02:44:01.233Z,721.9231
2023-03-27T02:45:02.891Z,726.4615
2023-03-27T02:46:04.625Z,729.6923
2023-03-27T02:47:06.181Z,726.6923
2023-03-27T02:48:07.900Z,726.5385
2023-03-27T02:49:09.484Z,720.6154
2023-03-27T02:50:11.227Z,722.6923
2023-03-27T02:51:12.803Z,725.4615
2023-03-27T02:52:14.464Z,725.3846
2023-03-27T02:53:16.104Z,724.9231
2023-03-27T02:54:17.766Z,725.0769
2023-03-27T02:55:19.426Z,725.1539
2023-03-27T02:56:21.097Z,724.3846
2023-03-27T02:57:24.967Z,724.7692
2023-03-27T02:58:24.391Z,724.4615
2023-03-27T02:59:26.016Z,723.6154
2023-03-27T03:00:27.712Z,724.6923
2023-03-27T03:01:29.365Z,724.0000
2023-03-27T03:02:31.065Z,724.9231
2023-03-27T03:03:32.646Z,724.3077
2023-03-27T03:04:34.307Z,723.0000
2023-03-27T03:05:35.961Z,721.3077
2023-03-27T03:06:37.608Z,718.6154
2023-03-27T03:07:39.248Z,723.6154
2023-03-27T03:08:40.919Z,722.0769
2023-03-27T03:09:42.555Z,723.3846
2023-03-27T03:10:44.241Z,724.2308
2023-03-27T03:11:45.849Z,724.3077
2023-03-27T03:12:47.515Z,723.1539
2023-03-27T03:13:49.147Z,721.1539
2023-03-27T03:14:50.831Z,720.7692
2023-03-27T03:15:52.507Z,721.3077
2023-03-27T03:16:54.177Z,722.3077
2023-03-27T03:17:55.780Z,720.4615
2023-03-27T03:18:57.451Z,722.0769
2023-03-27T03:19:59.069Z,723.3077
2023-03-27T03:21:00.782Z,720.8461
2023-03-27T03:22:02.386Z,722.0769
2023-03-27T03:23:04.056Z,724.1539
2023-03-27T03:24:05.696Z,722.3846
2023-03-27T03:25:07.370Z,721.4615
2023-03-27T03:26:09.022Z,725.3077
2023-03-27T03:27:10.693Z,726.4615
2023-03-27T03:28:12.303Z,725.2308
2023-03-27T03:29:13.972Z,724.0769
2023-03-27T03:30:16.985Z,724.7692
2023-03-27T03:31:17.362Z,721.2308
2023-03-27T03:32:18.916Z,722.9231
2023-03-27T03:33:20.582Z,720.7692
2023-03-27T03:34:22.203Z,717.7000
2023-03-27T03:35:23.898Z,718.0769
2023-03-27T03:36:25.526Z,717.2308
2023-03-27T03:37:27.178Z,718.0769
2023-03-27T03:38:28.815Z,717.5385
2023-03-27T03:39:30.490Z,714.7692
2023-03-27T03:40:32.112Z,712.6154
2023-03-27T03:41:33.804Z,712.6923
2023-03-27T03:42:35.422Z,715.0769
2023-03-27T03:43:37.086Z,717.3077
2023-03-27T03:44:38.741Z,714.6923
2023-03-27T03:45:40.395Z,716.6154
2023-03-27T03:46:42.041Z,718.6923
2023-03-27T03:47:43.725Z,719.7692
2023-03-27T03:48:45.317Z,718.2308
2023-03-27T03:49:46.993Z,713.1539
2023-03-27T03:50:48.623Z,714.3077
2023-03-27T03:52:03.775Z,713.6923
2023-03-27T03:52:51.921Z,715.3846
2023-03-27T03:53:53.586Z,717.3077
2023-03-27T03:54:55.239Z,716.6923
2023-03-27T03:55:56.883Z,716.2308
2023-03-27T03:56:58.557Z,712.9231
2023-03-27T03:58:00.192Z,715.1539
2023-03-27T03:59:01.846Z,716.4615
2023-03-27T04:00:03.504Z,714.6154
2023-03-27T04:01:05.126Z,715.0000
2023-03-27T04:02:06.837Z,714.6154
2023-03-27T04:03:08.640Z,713.3077
2023-03-27T04:04:10.104Z,712.6923
2023-03-27T04:05:11.745Z,715.3846
2023-03-27T04:06:13.419Z,716.6923
2023-03-27T04:07:15.060Z,716.6923
2023-03-27T04:08:16.715Z,717.1539
2023-03-27T04:09:18.341Z,716.4615
2023-03-27T04:10:20.048Z,717.0769
2023-03-27T04:11:21.660Z,715.6923
2023-03-27T04:12:23.353Z,712.9231
2023-03-27T04:13:24.987Z,712.0000
2023-03-27T04:14:26.622Z,714.0000
2023-03-27T04:15:28.266Z,711.1539
2023-03-27T04:16:29.994Z,717.8461
2023-03-27T04:17:31.622Z,713.6923
2023-03-27T04:18:33.367Z,713.2308
2023-03-27T04:19:34.888Z,711.4615
2023-03-27T04:20:36.537Z,710.2308
2023-03-27T04:21:38.158Z,710.0769
2023-03-27T04:22:39.847Z,712.3077
2023-03-27T04:23:41.463Z,736.0000
2023-03-27T04:24:43.140Z,801.4615
2023-03-27T04:25:44.810Z,813.6923
2023-03-27T04:26:46.441Z,810.5385
2023-03-27T04:27:48.088Z,812.3846
2023-03-27T04:28:49.730Z,815.1539
2023-03-27T04:29:51.369Z,821.1539
2023-03-27T04:30:53.038Z,820.1539
2023-03-27T04:31:54.681Z,820.5385
2023-03-27T04:32:56.389Z,831.7692
2023-03-27T04:33:57.977Z,835.1539
2023-03-27T04:34:59.651Z,822.9231
2023-03-27T04:36:06.360Z,823.3077
2023-03-27T04:37:02.958Z,779.0000
2023-03-27T04:38:04.616Z,694.1539
2023-03-27T04:39:06.260Z,690.0000
2023-03-27T04:40:07.892Z,759.0000
2023-03-27T04:41:09.545Z,778.7692
2023-03-27T04:42:11.178Z,734.6923
2023-03-27T04:43:12.887Z,775.3846
2023-03-27T04:44:14.493Z,800.0769
2023-03-27T04:45:16.190Z,836.4615
2023-03-27T04:46:17.825Z,852.4615
2023-03-27T04:47:19.476Z,869.2308
2023-03-27T04:48:21.140Z,898.4615
2023-03-27T04:49:22.780Z,937.6923
2023-03-27T04:50:24.403Z,939.3077
2023-03-27T04:51:26.089Z,939.3846
2023-03-27T04:52:27.725Z,938.9231
2023-03-27T04:53:29.556Z,908.2308
2023-03-27T04:54:31.055Z,885.2308
2023-03-27T04:55:32.680Z,888.1539
2023-03-27T04:56:34.363Z,918.1539
2023-03-27T04:57:35.987Z,929.7692
2023-03-27T04:58:37.945Z,904.0769
2023-03-27T04:59:39.301Z,878.6923
2023-03-27T05:00:40.987Z,871.6154
2023-03-27T05:01:42.606Z,841.3846
2023-03-27T05:02:44.270Z,769.3846
2023-03-27T05:03:45.976Z,759.4615
2023-03-27T05:04:47.551Z,763.9231
2023-03-27T05:05:49.190Z,746.0000
2023-03-27T05:06:50.872Z,728.1539
2023-03-27T05:07:52.580Z,729.5385
2023-03-27T05:08:54.177Z,734.1539
2023-03-27T05:09:55.777Z,734.3846
2023-03-27T05:10:57.712Z,747.8461
2023-03-27T05:11:59.098Z,754.6923
2023-03-27T05:13:00.769Z,767.3077
2023-03-27T05:14:02.426Z,773.2308
2023-03-27T05:15:04.089Z,782.8461
2023-03-27T05:16:05.720Z,795.6154
2023-03-27T05:17:07.374Z,805.0000
2023-03-27T05:18:09.322Z,814.4615
2023-03-27T05:19:10.767Z,817.9231
2023-03-27T05:20:12.319Z,824.1539
2023-03-27T05:21:13.974Z,827.0000
2023-03-27T05:22:15.626Z,820.6154
2023-03-27T05:23:17.288Z,824.7692
2023-03-27T05:24:18.931Z,826.7692
2023-03-27T05:25:20.586Z,841.0769
2023-03-27T05:26:22.215Z,916.5385
2023-03-27T05:27:23.923Z,979.0769
2023-03-27T05:28:25.525Z,1019.4615
2023-03-27T05:29:27.232Z,1041.9231
2023-03-27T05:30:28.927Z,1040.9231
2023-03-27T05:31:30.573Z,1036.6154
2023-03-27T05:32:32.170Z,1017.5385
2023-03-27T05:33:33.785Z,1009.3077
2023-03-27T05:34:35.496Z,1012.7692
2023-03-27T05:35:37.125Z,1013.3077
2023-03-27T05:36:38.773Z,1026.3846
2023-03-27T05:37:40.405Z,1039.9231
2023-03-27T05:38:42.064Z,1047.4615
2023-03-27T05:39:43.732Z,1065.4615
2023-03-27T05:40:45.374Z,1056.3077
2023-03-27T05:41:47.005Z,1042.4615
2023-03-27T05:42:48.674Z,1028.0769
2023-03-27T05:43:51.241Z,1020.0769
2023-03-27T05:44:51.996Z,1010.7692
2023-03-27T05:45:53.626Z,1004.4615
2023-03-27T05:46:55.291Z,998.5385
2023-03-27T05:47:56.991Z,1002.6154
2023-03-27T05:48:58.592Z,1001.0769
2023-03-27T05:50:00.249Z,993.9231
2023-03-27T05:51:01.903Z,993.0000
2023-03-27T05:52:03.510Z,1002.8461
2023-03-27T05:53:05.200Z,1003.1539
2023-03-27T05:54:06.809Z,1007.0769
2023-03-27T05:55:08.523Z,1022.7692
2023-03-27T05:56:10.116Z,1038.6154
2023-03-27T05:57:11.914Z,1059.4615
2023-03-27T05:58:13.462Z,1075.0769
2023-03-27T05:59:15.077Z,1085.9231
2023-03-27T06:00:16.762Z,1094.7693
2023-03-27T06:01:18.388Z,1099.3077
2023-03-27T06:02:21.517Z,1098.8462
2023-03-27T06:03:21.876Z,1108.4615
2023-03-27T06:04:23.358Z,1113.3077
2023-03-27T06:05:25.023Z,1109.6154
2023-03-27T06:06:26.637Z,1117.2307
2023-03-27T06:07:28.305Z,1130.4615
2023-03-27T06:08:29.933Z,1146.7693
2023-03-27T06:09:31.583Z,1157.0769
2023-03-27T06:10:33.250Z,1148.3077
2023-03-27T06:11:34.889Z,1129.1538
2023-03-27T06:12:36.526Z,1121.0769
2023-03-27T06:13:38.260Z,1105.2307
2023-03-27T06:14:39.906Z,1092.1538
2023-03-27T06:15:41.635Z,1082.0000
2023-03-27T06:16:43.201Z,1074.6154
2023-03-27T06:17:44.894Z,1061.0000
2023-03-27T06:18:46.498Z,1060.6154
2023-03-27T06:19:48.184Z,1064.0000
2023-03-27T06:20:49.815Z,1062.8462
2023-03-27T06:21:51.460Z,1061.7693
2023-03-27T06:22:53.104Z,1058.4615
2023-03-27T06:23:54.763Z,1062.0000
2023-03-27T06:24:56.389Z,1060.8462
2023-03-27T06:25:58.378Z,1060.0769
2023-03-27T06:26:59.691Z,1068.0769
2023-03-27T06:28:01.364Z,1080.0000
2023-03-27T06:29:08.142Z,1088.3846
2023-03-27T06:30:04.676Z,1095.2307
2023-03-27T06:31:06.355Z,1096.3846
2023-03-27T06:32:07.981Z,1093.8462
2023-03-27T06:33:09.621Z,1096.1538
2023-03-27T06:34:11.284Z,1100.8462
2023-03-27T06:35:12.896Z,1108.1538
2023-03-27T06:36:14.625Z,1108.6923
2023-03-27T06:37:16.181Z,1101.5385
2023-03-27T06:38:17.862Z,1102.0000
2023-03-27T06:39:19.479Z,1097.8462
2023-03-27T06:40:21.139Z,1102.1538
2023-03-27T06:41:22.802Z,1102.3846
2023-03-27T06:42:24.445Z,1097.1538
2023-03-27T06:43:26.075Z,1098.4615
2023-03-27T06:44:27.738Z,1097.1538
2023-03-27T06:45:29.393Z,1096.3077
2023-03-27T06:46:42.688Z,1098.2307
2023-03-27T06:47:36.382Z,1098.9231
2023-03-27T06:48:34.366Z,1093.8462
2023-03-27T06:49:35.975Z,1096.3846
2023-03-27T06:50:37.629Z,1094.4615
2023-03-27T06:51:39.281Z,1087.1538
2023-03-27T06:52:40.928Z,1087.8462
2023-03-27T06:53:42.558Z,1086.6154
2023-03-27T06:54:44.216Z,1083.2307
2023-03-27T06:55:45.868Z,1085.3846
2023-03-27T06:56:47.610Z,1087.7693
2023-03-27T06:57:49.166Z,1087.1538
2023-03-27T06:58:50.836Z,1087.2307
2023-03-27T06:59:52.488Z,1086.4615
2023-03-27T07:00:54.129Z,1087.6923
2023-03-27T07:01:55.830Z,1090.2307
2023-03-27T07:02:57.420Z,1088.4615
2023-03-27T07:03:59.065Z,1084.4615
2023-03-27T07:05:04.649Z,1077.0769
2023-03-27T07:06:02.556Z,1075.7693
2023-03-27T07:07:04.049Z,1074.3846
2023-03-27T07:08:18.997Z,1076.6923
2023-03-27T07:09:07.318Z,1072.0769
2023-03-27T07:10:08.962Z,1075.6154
2023-03-27T07:11:12.266Z,1073.6154
2023-03-27T07:12:12.278Z,1077.1538
2023-03-27T07:13:13.919Z,1076.3077
2023-03-27T07:14:15.589Z,1075.6923
2023-03-27T07:15:17.295Z,1075.7693
2023-03-27T07:16:18.892Z,1073.5385
2023-03-27T07:17:20.532Z,1077.1538
2023-03-27T07:18:22.216Z,1075.5385
2023-03-27T07:19:23.822Z,1079.6923
2023-03-27T07:20:25.473Z,1083.6154
2023-03-27T07:21:27.137Z,1079.6923
2023-03-27T07:22:28.799Z,1071.3846
2023-03-27T07:23:30.435Z,1072.0769
2023-03-27T07:24:32.060Z,1072.1538
2023-03-27T07:25:33.744Z,1068.8462
2023-03-27T07:26:35.354Z,1070.9231
2023-03-27T07:27:37.063Z,1071.9231
2023-03-27T07:28:38.729Z,1073.1538
2023-03-27T07:29:40.337Z,1066.1538
2023-03-27T07:30:41.983Z,1063.6923
2023-03-27T07:31:57.525Z,1070.1538
2023-03-27T07:32:45.408Z,1077.0000
2023-03-27T07:33:47.068Z,1072.2307
2023-03-27T07:34:48.579Z,1069.8462
2023-03-27T07:35:50.256Z,1065.4615
2023-03-27T07:36:51.894Z,1067.3846
2023-03-27T07:37:53.579Z,1065.8462
2023-03-27T07:38:55.184Z,1066.1538
2023-03-27T07:39:56.847Z,1065.3077
2023-03-27T07:40:58.504Z,1054.8462
2023-03-27T07:42:00.164Z,1053.0000
2023-03-27T07:43:01.834Z,1056.0000
2023-03-27T07:44:03.464Z,1060.4615
2023-03-27T07:45:05.090Z,1064.4615
2023-03-27T07:46:06.803Z,1060.1538
2023-03-27T07:47:08.397Z,1061.9231
2023-03-27T07:48:10.087Z,1058.0000
2023-03-27T07:49:11.685Z,1054.0769
2023-03-27T07:50:13.380Z,1053.5385
2023-03-27T07:51:14.982Z,1056.2307
2023-03-27T07:52:16.738Z,1055.6923
2023-03-27T07:53:32.806Z,1049.6923
2023-03-27T07:54:19.945Z,1053.3846
2023-03-27T07:55:21.582Z,1055.4615
2023-03-27T07:56:23.276Z,1055.1538
2023-03-27T07:57:25.041Z,1058.1538
2023-03-27T07:58:26.857Z,1053.4615
2023-03-27T07:59:28.197Z,1052.6923
2023-03-27T08:00:29.980Z,1051.7693
2023-03-27T08:01:31.480Z,1049.0000
2023-03-27T08:02:33.188Z,1047.5385
2023-03-27T08:03:34.922Z,1049.1538
2023-03-27T08:04:36.584Z,1045.4615
2023-03-27T08:05:38.080Z,1051.6154
2023-03-27T08:06:39.751Z,1050.7693
2023-03-27T08:07:41.389Z,1058.0769
2023-03-27T08:08:43.092Z,1052.1538
2023-03-27T08:09:44.697Z,1047.0000
2023-03-27T08:10:46.361Z,1047.5385
2023-03-27T08:11:48.010Z,1055.0000
2023-03-27T08:12:49.668Z,1054.8462
2023-03-27T08:13:51.330Z,1049.6154
2023-03-27T08:14:52.968Z,1051.3077
2023-03-27T08:15:54.750Z,1053.1538
2023-03-27T08:17:08.648Z,1055.6154
2023-03-27T08:17:57.937Z,1053.5385
2023-03-27T08:18:59.640Z,1049.0769
2023-03-27T08:20:01.226Z,1041.4615
2023-03-27T08:21:02.957Z,1040.4615
2023-03-27T08:22:04.501Z,1043.4615
2023-03-27T08:23:06.191Z,1043.6923
2023-03-27T08:24:07.833Z,1042.7693
2023-03-27T08:25:09.502Z,1042.6154
2023-03-27T08:26:11.101Z,1041.3846
2023-03-27T08:27:12.798Z,1038.6923
2023-03-27T08:28:14.433Z,1030.9231
2023-03-27T08:29:16.138Z,1036.3846
2023-03-27T08:30:17.794Z,1043.3077
2023-03-27T08:31:19.487Z,1049.0000
2023-03-27T08:32:21.035Z,1043.8462
2023-03-27T08:33:22.739Z,1046.2307
2023-03-27T08:34:24.397Z,1044.6154
2023-03-27T08:35:26.026Z,1039.9231
2023-03-27T08:36:27.632Z,1038.3846
2023-03-27T08:37:29.265Z,1039.6923
2023-03-27T08:38:30.964Z,1038.6154
2023-03-27T08:39:32.630Z,1039.1538
2023-03-27T08:40:34.219Z,1040.4615
2023-03-27T08:41:35.882Z,1038.8462
2023-03-27T08:42:37.556Z,1034.0769
2023-03-27T08:43:39.142Z,1038.1538
2023-03-27T08:44:40.873Z,1037.6154
2023-03-27T08:45:42.470Z,1035.3077
2023-03-27T08:46:44.136Z,1037.0769
2023-03-27T08:48:48.556Z,1035.0769
2023-03-27T08:49:50.144Z,1034.5385
2023-03-27T08:50:51.817Z,1033.8462
2023-03-27T08:51:53.406Z,1036.6154
2023-03-27T08:52:55.059Z,1035.1538
2023-03-27T08:53:56.719Z,1033.3077
2023-03-27T08:54:58.502Z,1033.6923
2023-03-27T08:56:00.003Z,1029.6923
2023-03-27T08:57:01.759Z,1024.1538
2023-03-27T08:58:03.334Z,1030.2307
2023-03-27T08:59:04.992Z,1032.5385
2023-03-27T09:00:06.650Z,1032.4615
2023-03-27T09:01:08.301Z,1032.0769
2023-03-27T09:02:09.989Z,1030.3846
2023-03-27T09:03:11.721Z,1027.2307
2023-03-27T09:04:13.218Z,1032.2307
2023-03-27T09:05:14.931Z,1020.5385
2023-03-27T09:06:16.567Z,1019.6154
2023-03-27T09:07:18.188Z,1024.8462
2023-03-27T09:08:19.804Z,1027.3846
2023-03-27T09:09:21.461Z,1023.6923
2023-03-27T09:10:23.199Z,1021.6154
2023-03-27T09:11:24.804Z,1021.0769
2023-03-27T09:12:26.430Z,1023.9231
2023-03-27T09:13:28.027Z,1024.5385
2023-03-27T09:14:29.686Z,1025.2307
2023-03-27T09:15:31.384Z,1026.0000
2023-03-27T09:16:33.122Z,1025.8462
2023-03-27T09:17:34.683Z,1027.8462
2023-03-27T09:18:36.316Z,1028.6923
2023-03-27T09:19:37.947Z,1027.2307
2023-03-27T09:20:39.662Z,1019.7692
2023-03-27T09:21:41.229Z,1013.6923
2023-03-27T09:22:42.904Z,1013.8461
2023-03-27T09:23:44.523Z,1017.8461
2023-03-27T09:24:46.236Z,1017.4615
2023-03-27T09:25:47.926Z,1024.1538
2023-03-27T09:27:01.072Z,1020.8461
2023-03-27T09:27:51.132Z,1016.0000
2023-03-27T09:28:52.806Z,1016.6154
2023-03-27T09:30:05.960Z,1018.9231
2023-03-27T09:30:56.226Z,1014.4167
2023-03-27T09:31:57.744Z,1019.3077
2023-03-27T09:32:59.448Z,1024.5385
2023-03-27T09:34:01.001Z,1022.0000
2023-03-27T09:35:02.752Z,1022.1539
2023-03-27T09:36:04.460Z,1020.2308
2023-03-27T09:37:06.056Z,1017.6923
2023-03-27T09:38:07.640Z,1023.8461
2023-03-27T09:39:09.314Z,1013.9231
2023-03-27T09:40:10.954Z,1019.4615
2023-03-27T09:41:12.634Z,1020.6923
2023-03-27T09:42:14.238Z,1013.2308
2023-03-27T09:43:15.920Z,1011.0769
2023-03-27T09:44:17.596Z,1011.0000
2023-03-27T09:45:19.301Z,1010.1539
2023-03-27T09:46:20.933Z,1017.4615
2023-03-27T09:47:22.520Z,1016.2308
2023-03-27T09:48:24.185Z,1023.0000
2023-03-27T09:49:25.814Z,1021.6923
2023-03-27T09:50:27.945Z,1020.4615
2023-03-27T09:51:29.269Z,1017.9231
2023-03-27T09:52:30.711Z,1011.0769
2023-03-27T09:53:32.434Z,1008.1539
2023-03-27T09:54:34.058Z,1012.7692
2023-03-27T09:55:35.717Z,1013.4615
2023-03-27T09:56:37.392Z,1017.0769
2023-03-27T09:57:39.077Z,1020.8461
2023-03-27T09:58:40.678Z,1018.7692
2023-03-27T09:59:42.307Z,1011.6154
2023-03-27T10:00:44.031Z,1005.2308
2023-03-27T10:01:45.632Z,1005.5385
2023-03-27T10:02:47.297Z,1005.0000
2023-03-27T10:03:49.108Z,1002.7692
2023-03-27T10:04:50.548Z,1003.9231
2023-03-27T10:05:52.216Z,1003.7692
2023-03-27T10:06:53.852Z,1009.6923
2023-03-27T10:07:55.522Z,1007.6154
2023-03-27T10:08:57.165Z,1007.4615
2023-03-27T10:09:58.836Z,1007.8461
2023-03-27T10:11:00.485Z,1005.6923
2023-03-27T10:12:02.190Z,1000.5385
2023-03-27T10:13:03.767Z,1008.7692
2023-03-27T10:14:05.454Z,1004.3846
2023-03-27T10:15:07.112Z,999.9231
2023-03-27T10:16:08.837Z,1000.6923
2023-03-27T10:17:10.450Z,1002.8461
2023-03-27T10:18:12.199Z,1006.0769
2023-03-27T10:19:13.855Z,1008.5385
2023-03-27T10:20:15.491Z,1012.5385
2023-03-27T10:21:17.100Z,1006.0769
2023-03-27T10:22:18.766Z,1003.5385
2023-03-27T10:23:20.359Z,1001.7692
2023-03-27T10:24:22.005Z,998.3846
2023-03-27T10:25:23.678Z,995.3077
2023-03-27T10:26:25.343Z,995.1539
2023-03-27T10:27:26.976Z,992.0000
2023-03-27T10:28:28.609Z,998.5385
2023-03-27T10:29:30.262Z,1002.1539
2023-03-27T10:30:31.912Z,1001.6154
2023-03-27T10:31:33.588Z,995.0000
2023-03-27T10:32:35.268Z,990.6923
2023-03-27T10:33:36.885Z,992.0769
2023-03-27T10:34:38.517Z,992.6154
2023-03-27T10:35:40.179Z,989.3077
2023-03-27T10:36:41.842Z,990.8461
2023-03-27T10:37:49.773Z,992.3077
2023-03-27T10:38:45.132Z,987.5833
2023-03-27T10:39:46.756Z,989.2308
2023-03-27T10:40:48.426Z,987.3077
2023-03-27T10:41:50.067Z,984.0769
2023-03-27T10:42:51.782Z,989.3846
2023-03-27T10:43:53.360Z,990.6923
2023-03-27T10:44:55.030Z,991.3077
2023-03-27T10:45:56.764Z,991.3077
2023-03-27T10:46:58.347Z,985.5385
2023-03-27T10:48:00.038Z,986.9231
2023-03-27T10:49:01.635Z,992.3846
2023-03-27T10:50:03.267Z,991.5385
2023-03-27T10:51:04.945Z,989.6154
2023-03-27T10:52:06.560Z,994.5385
2023-03-27T10:53:08.336Z,992.8461
2023-03-27T10:54:09.902Z,986.3077
2023-03-27T10:55:11.537Z,981.0000
2023-03-27T10:56:13.176Z,982.7692
2023-03-27T10:57:14.868Z,986.1539
2023-03-27T10:58:16.481Z,986.7692
2023-03-27T10:59:21.509Z,989.2308
2023-03-27T11:00:19.763Z,989.0000
2023-03-27T11:01:21.505Z,986.1539
2023-03-27T11:02:23.115Z,980.7692
2023-03-27T11:03:24.807Z,978.0000
2023-03-27T11:04:26.378Z,978.9231
2023-03-27T11:05:28.092Z,979.0000
2023-03-27T11:06:29.698Z,979.9231
2023-03-27T11:07:31.369Z,979.6154
2023-03-27T11:08:33.062Z,982.6923
2023-03-27T11:09:34.708Z,983.9231
2023-03-27T11:10:36.320Z,974.6923
2023-03-27T11:11:38.031Z,976.3846
2023-03-27T11:12:39.608Z,976.6154
2023-03-27T11:13:41.279Z,980.0769
2023-03-27T11:14:42.917Z,981.8461
2023-03-27T11:15:44.608Z,983.9231
2023-03-27T11:16:46.242Z,982.6154
2023-03-27T11:17:47.905Z,981.0769
2023-03-27T11:18:49.573Z,980.0769
2023-03-27T11:19:51.176Z,978.5385
2023-03-27T11:20:52.789Z,979.7692
2023-03-27T11:21:54.485Z,980.9231
2023-03-27T11:22:56.138Z,984.0000
2023-03-27T11:23:57.926Z,979.2308
2023-03-27T11:24:59.429Z,976.3077
2023-03-27T11:26:01.075Z,976.6154
2023-03-27T11:27:02.754Z,977.0000
2023-03-27T11:28:04.444Z,970.4615
2023-03-27T11:29:06.059Z,972.6923
2023-03-27T11:30:07.705Z,976.0000
2023-03-27T11:31:12.112Z,982.7692
2023-03-27T11:32:10.995Z,978.2308
2023-03-27T11:33:12.608Z,977.8461
2023-03-27T11:34:14.345Z,980.1539
2023-03-27T11:35:15.923Z,984.0833
2023-03-27T11:36:17.619Z,976.0000
2023-03-27T11:37:19.217Z,976.0000
2023-03-27T11:38:20.911Z,980.0769
2023-03-27T11:39:22.626Z,978.6154
2023-03-27T11:40:24.232Z,976.0000
2023-03-27T11:41:25.847Z,977.0769
2023-03-27T11:42:27.604Z,978.9231
2023-03-27T11:43:29.135Z,979.0769
2023-03-27T11:44:30.847Z,976.4615
2023-03-27T11:45:32.452Z,972.4615
2023-03-27T11:46:34.168Z,976.3846
2023-03-27T11:47:35.759Z,971.4615
2023-03-27T11:48:37.394Z,976.0000
2023-03-27T11:49:39.141Z,975.0769
2023-03-27T11:50:40.750Z,973.9231
2023-03-27T11:51:42.403Z,973.2308
2023-03-27T11:52:43.997Z,971.3077
2023-03-27T11:53:45.684Z,973.0000
2023-03-27T11:54:47.379Z,973.9231
2023-03-27T11:55:49.008Z,973.9231
2023-03-27T11:56:50.643Z,972.0000